sensor_id;sensor_type;location;lat;lon;timestamp;P1;P2;P0
56688;PMS5003;42565;53.342;-1.534;2022-07-23T00:01:58;5;5;
56688;PMS5003;42565;53.342;-1.534;2022-07-23T00:04:24;4;4;
56688;PMS5003;42565;53.342;-1.534;2022-07-23T00:06:51;4;4;
56688;PMS5003;42565;53.342;-1.534;2022-07-23T00:09:19;5;5;
56688;PMS5003;42565;53.342;-1.534;2022-07-23T00:11:45;6;4;
56688;PMS5003;42565;53.342;-1.534;2022-07-23T00:14:12;6;5;
56688;PMS5003;42565;53.342;-1.534;2022-07-23T00:16:40;3;3;
56688;PMS5003;42565;53.342;-1.534;2022-07-23T00:19:06;3;3;
56688;PMS5003;42565;53.342;-1.534;2022-07-23T00:21:33;4;4;
56688;PMS5003;42565;53.342;-1.534;2022-07-23T00:24:00;5;5;
56688;PMS5003;42565;53.342;-1.534;2022-07-23T00:26:26;4;4;
56688;PMS5003;42565;53.342;-1.534;2022-07-23T00:28:54;5;4;
56688;PMS5003;42565;53.342;-1.534;2022-07-23T00:31:22;4;4;
56688;PMS5003;42565;53.342;-1.534;2022-07-23T00:33:48;4;4;
56688;PMS5003;42565;53.342;-1.534;2022-07-23T00:36:15;5;5;
56688;PMS5003;42565;53.342;-1.534;2022-07-23T00:38:42;4;4;
56688;PMS5003;42565;53.342;-1.534;2022-07-23T00:41:08;5;5;
56688;PMS5003;42565;53.342;-1.534;2022-07-23T00:43:35;5;5;
56688;PMS5003;42565;53.342;-1.534;2022-07-23T00:46:02;4;4;
56688;PMS5003;42565;53.342;-1.534;2022-07-23T00:48:29;5;5;
56688;PMS5003;42565;53.342;-1.534;2022-07-23T00:50:56;6;6;
56688;PMS5003;42565;53.342;-1.534;2022-07-23T00:53:24;4;3;
56688;PMS5003;42565;53.342;-1.534;2022-07-23T00:55:51;5;4;
56688;PMS5003;42565;53.342;-1.534;2022-07-23T00:58:20;3;3;
56688;PMS5003;42565;53.342;-1.534;2022-07-23T01:00:47;5;5;
56688;PMS5003;42565;53.342;-1.534;2022-07-23T01:03:15;6;6;
56688;PMS5003;42565;53.342;-1.534;2022-07-23T01:05:41;4;4;
56688;PMS5003;42565;53.342;-1.534;2022-07-23T01:08:09;4;4;
56688;PMS5003;42565;53.342;-1.534;2022-07-23T01:10:37;5;5;
56688;PMS5003;42565;53.342;-1.534;2022-07-23T01:13:04;5;5;
56688;PMS5003;42565;53.342;-1.534;2022-07-23T01:15:34;5;5;
56688;PMS5003;42565;53.342;-1.534;2022-07-23T01:18:02;5;5;
56688;PMS5003;42565;53.342;-1.534;2022-07-23T01:20:30;4;4;
56688;PMS5003;42565;53.342;-1.534;2022-07-23T01:22:59;5;5;
56688;PMS5003;42565;53.342;-1.534;2022-07-23T01:25:26;3;3;
56688;PMS5003;42565;53.342;-1.534;2022-07-23T01:28:53;5;5;
56688;PMS5003;42565;53.342;-1.534;2022-07-23T01:31:21;6;5;
56688;PMS5003;42565;53.342;-1.534;2022-07-23T01:33:49;5;5;
56688;PMS5003;42565;53.342;-1.534;2022-07-23T01:36:16;5;5;
56688;PMS5003;42565;53.342;-1.534;2022-07-23T01:38:44;5;5;
56688;PMS5003;42565;53.342;-1.534;2022-07-23T01:41:11;3;3;
56688;PMS5003;42565;53.342;-1.534;2022-07-23T01:43:39;4;4;
56688;PMS5003;42565;53.342;-1.534;2022-07-23T01:46:06;5;5;
56688;PMS5003;42565;53.342;-1.534;2022-07-23T01:48:34;5;5;
56688;PMS5003;42565;53.342;-1.534;2022-07-23T01:51:02;5;5;
56688;PMS5003;42565;53.342;-1.534;2022-07-23T01:53:29;3;3;
56688;PMS5003;42565;53.342;-1.534;2022-07-23T01:55:57;5;5;
56688;PMS5003;42565;53.342;-1.534;2022-07-23T01:58:25;6;6;
56688;PMS5003;42565;53.342;-1.534;2022-07-23T02:00:52;5;5;
56688;PMS5003;42565;53.342;-1.534;2022-07-23T02:03:20;4;4;
56688;PMS5003;42565;53.342;-1.534;2022-07-23T02:05:47;6;6;
56688;PMS5003;42565;53.342;-1.534;2022-07-23T02:08:15;6;5;
56688;PMS5003;42565;53.342;-1.534;2022-07-23T02:10:42;6;6;
56688;PMS5003;42565;53.342;-1.534;2022-07-23T02:13:10;5;5;
56688;PMS5003;42565;53.342;-1.534;2022-07-23T02:15:37;6;6;
56688;PMS5003;42565;53.342;-1.534;2022-07-23T02:18:04;7;7;
56688;PMS5003;42565;53.342;-1.534;2022-07-23T02:20:32;9;9;
56688;PMS5003;42565;53.342;-1.534;2022-07-23T02:22:58;7;7;
56688;PMS5003;42565;53.342;-1.534;2022-07-23T02:25:25;8;7;
56688;PMS5003;42565;53.342;-1.534;2022-07-23T02:28:02;8;8;
56688;PMS5003;42565;53.342;-1.534;2022-07-23T02:30:30;8;8;
56688;PMS5003;42565;53.342;-1.534;2022-07-23T02:32:58;7;7;
56688;PMS5003;42565;53.342;-1.534;2022-07-23T02:35:25;8;8;
56688;PMS5003;42565;53.342;-1.534;2022-07-23T02:37:53;8;7;
56688;PMS5003;42565;53.342;-1.534;2022-07-23T02:40:20;9;8;
56688;PMS5003;42565;53.342;-1.534;2022-07-23T02:42:49;9;8;
56688;PMS5003;42565;53.342;-1.534;2022-07-23T02:45:16;9;8;
56688;PMS5003;42565;53.342;-1.534;2022-07-23T02:47:44;7;7;
56688;PMS5003;42565;53.342;-1.534;2022-07-23T02:50:11;7;7;
56688;PMS5003;42565;53.342;-1.534;2022-07-23T02:52:38;10;9;
56688;PMS5003;42565;53.342;-1.534;2022-07-23T02:55:06;13;12;
56688;PMS5003;42565;53.342;-1.534;2022-07-23T02:57:34;10;10;
56688;PMS5003;42565;53.342;-1.534;2022-07-23T03:00:03;14;13;
56688;PMS5003;42565;53.342;-1.534;2022-07-23T03:02:32;11;11;
56688;PMS5003;42565;53.342;-1.534;2022-07-23T03:04:59;12;11;
56688;PMS5003;42565;53.342;-1.534;2022-07-23T03:07:27;11;10;
56688;PMS5003;42565;53.342;-1.534;2022-07-23T03:09:55;10;9;
56688;PMS5003;42565;53.342;-1.534;2022-07-23T03:12:22;11;9;
56688;PMS5003;42565;53.342;-1.534;2022-07-23T03:14:49;12;11;
56688;PMS5003;42565;53.342;-1.534;2022-07-23T03:17:16;10;10;
56688;PMS5003;42565;53.342;-1.534;2022-07-23T03:19:43;10;10;
56688;PMS5003;42565;53.342;-1.534;2022-07-23T03:22:11;11;10;
56688;PMS5003;42565;53.342;-1.534;2022-07-23T03:24:37;10;9;
56688;PMS5003;42565;53.342;-1.534;2022-07-23T03:28:50;12;12;
56688;PMS5003;42565;53.342;-1.534;2022-07-23T03:31:18;12;12;
56688;PMS5003;42565;53.342;-1.534;2022-07-23T03:33:45;11;11;
56688;PMS5003;42565;53.342;-1.534;2022-07-23T03:36:12;14;14;
56688;PMS5003;42565;53.342;-1.534;2022-07-23T03:38:39;15;14;
56688;PMS5003;42565;53.342;-1.534;2022-07-23T03:41:06;14;14;
56688;PMS5003;42565;53.342;-1.534;2022-07-23T03:43:33;13;11;
56688;PMS5003;42565;53.342;-1.534;2022-07-23T03:46:00;20;16;
56688;PMS5003;42565;53.342;-1.534;2022-07-23T03:48:27;23;21;
56688;PMS5003;42565;53.342;-1.534;2022-07-23T03:50:54;18;17;
56688;PMS5003;42565;53.342;-1.534;2022-07-23T03:53:22;23;21;
56688;PMS5003;42565;53.342;-1.534;2022-07-23T03:55:49;30;28;
56688;PMS5003;42565;53.342;-1.534;2022-07-23T03:58:16;30;28;
56688;PMS5003;42565;53.342;-1.534;2022-07-23T04:00:43;32;27;
56688;PMS5003;42565;53.342;-1.534;2022-07-23T04:03:10;29;27;
56688;PMS5003;42565;53.342;-1.534;2022-07-23T04:05:37;24;21;
56688;PMS5003;42565;53.342;-1.534;2022-07-23T04:08:04;17;17;
56688;PMS5003;42565;53.342;-1.534;2022-07-23T04:10:32;25;23;
56688;PMS5003;42565;53.342;-1.534;2022-07-23T04:12:59;21;19;
56688;PMS5003;42565;53.342;-1.534;2022-07-23T04:15:26;23;22;
56688;PMS5003;42565;53.342;-1.534;2022-07-23T04:17:53;21;21;
56688;PMS5003;42565;53.342;-1.534;2022-07-23T04:20:21;23;21;
56688;PMS5003;42565;53.342;-1.534;2022-07-23T04:22:48;23;21;
56688;PMS5003;42565;53.342;-1.534;2022-07-23T04:25:15;29;27;
56688;PMS5003;42565;53.342;-1.534;2022-07-23T04:27:41;22;21;
56688;PMS5003;42565;53.342;-1.534;2022-07-23T04:30:08;27;25;
56688;PMS5003;42565;53.342;-1.534;2022-07-23T04:32:36;20;19;
56688;PMS5003;42565;53.342;-1.534;2022-07-23T04:35:03;27;22;
56688;PMS5003;42565;53.342;-1.534;2022-07-23T04:37:31;26;22;
56688;PMS5003;42565;53.342;-1.534;2022-07-23T04:39:58;25;22;
56688;PMS5003;42565;53.342;-1.534;2022-07-23T04:42:25;22;20;
56688;PMS5003;42565;53.342;-1.534;2022-07-23T04:44:52;26;24;
56688;PMS5003;42565;53.342;-1.534;2022-07-23T04:47:19;21;21;
56688;PMS5003;42565;53.342;-1.534;2022-07-23T04:49:46;24;22;
56688;PMS5003;42565;53.342;-1.534;2022-07-23T04:52:14;26;25;
56688;PMS5003;42565;53.342;-1.534;2022-07-23T04:54:40;22;20;
56688;PMS5003;42565;53.342;-1.534;2022-07-23T04:57:07;29;28;
56688;PMS5003;42565;53.342;-1.534;2022-07-23T04:59:34;28;27;
56688;PMS5003;42565;53.342;-1.534;2022-07-23T05:02:00;24;20;
56688;PMS5003;42565;53.342;-1.534;2022-07-23T05:04:28;25;25;
56688;PMS5003;42565;53.342;-1.534;2022-07-23T05:06:55;19;19;
56688;PMS5003;42565;53.342;-1.534;2022-07-23T05:09:22;29;25;
56688;PMS5003;42565;53.342;-1.534;2022-07-23T05:11:49;24;24;
56688;PMS5003;42565;53.342;-1.534;2022-07-23T05:14:16;25;24;
56688;PMS5003;42565;53.342;-1.534;2022-07-23T05:16:43;28;26;
56688;PMS5003;42565;53.342;-1.534;2022-07-23T05:19:10;25;24;
56688;PMS5003;42565;53.342;-1.534;2022-07-23T05:21:37;25;23;
56688;PMS5003;42565;53.342;-1.534;2022-07-23T05:24:05;24;23;
56688;PMS5003;42565;53.342;-1.534;2022-07-23T05:28:03;25;25;
56688;PMS5003;42565;53.342;-1.534;2022-07-23T05:30:30;29;24;
56688;PMS5003;42565;53.342;-1.534;2022-07-23T05:32:58;22;20;
56688;PMS5003;42565;53.342;-1.534;2022-07-23T05:35:26;23;23;
56688;PMS5003;42565;53.342;-1.534;2022-07-23T05:37:53;26;23;
56688;PMS5003;42565;53.342;-1.534;2022-07-23T05:40:20;27;26;
56688;PMS5003;42565;53.342;-1.534;2022-07-23T05:42:47;28;25;
56688;PMS5003;42565;53.342;-1.534;2022-07-23T05:45:14;27;26;
56688;PMS5003;42565;53.342;-1.534;2022-07-23T05:47:42;29;28;
56688;PMS5003;42565;53.342;-1.534;2022-07-23T05:50:10;35;31;
56688;PMS5003;42565;53.342;-1.534;2022-07-23T05:52:38;31;28;
56688;PMS5003;42565;53.342;-1.534;2022-07-23T05:55:06;29;27;
56688;PMS5003;42565;53.342;-1.534;2022-07-23T05:57:36;27;25;
56688;PMS5003;42565;53.342;-1.534;2022-07-23T06:00:04;39;32;
56688;PMS5003;42565;53.342;-1.534;2022-07-23T06:02:33;36;33;
56688;PMS5003;42565;53.342;-1.534;2022-07-23T06:05:00;38;32;
56688;PMS5003;42565;53.342;-1.534;2022-07-23T06:07:27;34;32;
56688;PMS5003;42565;53.342;-1.534;2022-07-23T06:09:54;33;32;
56688;PMS5003;42565;53.342;-1.534;2022-07-23T06:12:21;41;38;
56688;PMS5003;42565;53.342;-1.534;2022-07-23T06:14:48;39;32;
56688;PMS5003;42565;53.342;-1.534;2022-07-23T06:17:15;34;29;
56688;PMS5003;42565;53.342;-1.534;2022-07-23T06:19:43;33;31;
56688;PMS5003;42565;53.342;-1.534;2022-07-23T06:22:10;33;30;
56688;PMS5003;42565;53.342;-1.534;2022-07-23T06:24:38;29;28;
56688;PMS5003;42565;53.342;-1.534;2022-07-23T06:27:35;38;33;
56688;PMS5003;42565;53.342;-1.534;2022-07-23T06:30:02;28;27;
56688;PMS5003;42565;53.342;-1.534;2022-07-23T06:32:29;33;32;
56688;PMS5003;42565;53.342;-1.534;2022-07-23T06:34:57;38;36;
56688;PMS5003;42565;53.342;-1.534;2022-07-23T06:37:24;41;35;
56688;PMS5003;42565;53.342;-1.534;2022-07-23T06:39:51;33;31;
56688;PMS5003;42565;53.342;-1.534;2022-07-23T06:42:19;29;29;
56688;PMS5003;42565;53.342;-1.534;2022-07-23T06:44:46;35;27;
56688;PMS5003;42565;53.342;-1.534;2022-07-23T06:47:14;33;31;
56688;PMS5003;42565;53.342;-1.534;2022-07-23T06:49:41;28;28;
56688;PMS5003;42565;53.342;-1.534;2022-07-23T06:52:08;30;28;
56688;PMS5003;42565;53.342;-1.534;2022-07-23T06:54:35;30;29;
56688;PMS5003;42565;53.342;-1.534;2022-07-23T06:57:03;32;28;
56688;PMS5003;42565;53.342;-1.534;2022-07-23T06:59:30;24;24;
56688;PMS5003;42565;53.342;-1.534;2022-07-23T07:01:57;27;25;
56688;PMS5003;42565;53.342;-1.534;2022-07-23T07:04:24;31;29;
56688;PMS5003;42565;53.342;-1.534;2022-07-23T07:06:51;34;28;
56688;PMS5003;42565;53.342;-1.534;2022-07-23T07:09:18;30;28;
56688;PMS5003;42565;53.342;-1.534;2022-07-23T07:11:45;31;29;
56688;PMS5003;42565;53.342;-1.534;2022-07-23T07:14:13;26;25;
56688;PMS5003;42565;53.342;-1.534;2022-07-23T07:16:39;29;27;
56688;PMS5003;42565;53.342;-1.534;2022-07-23T07:19:07;33;30;
56688;PMS5003;42565;53.342;-1.534;2022-07-23T07:21:34;30;27;
56688;PMS5003;42565;53.342;-1.534;2022-07-23T07:24:01;27;25;
56688;PMS5003;42565;53.342;-1.534;2022-07-23T07:26:28;29;27;
56688;PMS5003;42565;53.342;-1.534;2022-07-23T07:28:55;32;28;
56688;PMS5003;42565;53.342;-1.534;2022-07-23T07:31:23;33;31;
56688;PMS5003;42565;53.342;-1.534;2022-07-23T07:33:49;27;26;
56688;PMS5003;42565;53.342;-1.534;2022-07-23T07:36:16;30;29;
56688;PMS5003;42565;53.342;-1.534;2022-07-23T07:38:43;25;24;
56688;PMS5003;42565;53.342;-1.534;2022-07-23T07:41:10;27;26;
56688;PMS5003;42565;53.342;-1.534;2022-07-23T07:43:38;26;24;
56688;PMS5003;42565;53.342;-1.534;2022-07-23T07:46:05;24;24;
56688;PMS5003;42565;53.342;-1.534;2022-07-23T07:48:32;31;29;
56688;PMS5003;42565;53.342;-1.534;2022-07-23T07:51:00;29;27;
56688;PMS5003;42565;53.342;-1.534;2022-07-23T07:53:27;27;25;
56688;PMS5003;42565;53.342;-1.534;2022-07-23T07:55:54;27;25;
56688;PMS5003;42565;53.342;-1.534;2022-07-23T07:58:22;28;28;
56688;PMS5003;42565;53.342;-1.534;2022-07-23T08:00:49;29;25;
56688;PMS5003;42565;53.342;-1.534;2022-07-23T08:03:17;27;26;
56688;PMS5003;42565;53.342;-1.534;2022-07-23T08:05:44;27;25;
56688;PMS5003;42565;53.342;-1.534;2022-07-23T08:08:11;26;25;
56688;PMS5003;42565;53.342;-1.534;2022-07-23T08:10:38;21;20;
56688;PMS5003;42565;53.342;-1.534;2022-07-23T08:13:04;24;24;
56688;PMS5003;42565;53.342;-1.534;2022-07-23T08:15:31;25;23;
56688;PMS5003;42565;53.342;-1.534;2022-07-23T08:17:58;23;22;
56688;PMS5003;42565;53.342;-1.534;2022-07-23T08:20:26;23;21;
56688;PMS5003;42565;53.342;-1.534;2022-07-23T08:22:54;19;18;
56688;PMS5003;42565;53.342;-1.534;2022-07-23T08:25:23;22;19;
56688;PMS5003;42565;53.342;-1.534;2022-07-23T08:27:52;19;17;
56688;PMS5003;42565;53.342;-1.534;2022-07-23T08:30:20;17;16;
56688;PMS5003;42565;53.342;-1.534;2022-07-23T08:32:50;19;19;
56688;PMS5003;42565;53.342;-1.534;2022-07-23T08:35:21;20;19;
56688;PMS5003;42565;53.342;-1.534;2022-07-23T08:37:50;20;18;
56688;PMS5003;42565;53.342;-1.534;2022-07-23T08:40:18;17;16;
56688;PMS5003;42565;53.342;-1.534;2022-07-23T08:42:47;17;17;
56688;PMS5003;42565;53.342;-1.534;2022-07-23T08:45:16;18;18;
56688;PMS5003;42565;53.342;-1.534;2022-07-23T08:47:44;17;16;
56688;PMS5003;42565;53.342;-1.534;2022-07-23T08:50:12;20;19;
56688;PMS5003;42565;53.342;-1.534;2022-07-23T08:52:40;20;20;
56688;PMS5003;42565;53.342;-1.534;2022-07-23T08:55:07;24;24;
56688;PMS5003;42565;53.342;-1.534;2022-07-23T08:57:35;21;21;
56688;PMS5003;42565;53.342;-1.534;2022-07-23T09:00:03;19;19;
56688;PMS5003;42565;53.342;-1.534;2022-07-23T09:02:36;19;18;
56688;PMS5003;42565;53.342;-1.534;2022-07-23T09:05:05;22;19;
56688;PMS5003;42565;53.342;-1.534;2022-07-23T09:07:34;24;23;
56688;PMS5003;42565;53.342;-1.534;2022-07-23T09:10:06;20;19;
56688;PMS5003;42565;53.342;-1.534;2022-07-23T09:12:35;17;17;
56688;PMS5003;42565;53.342;-1.534;2022-07-23T09:15:04;18;17;
56688;PMS5003;42565;53.342;-1.534;2022-07-23T09:17:40;21;19;
56688;PMS5003;42565;53.342;-1.534;2022-07-23T09:20:10;18;17;
56688;PMS5003;42565;53.342;-1.534;2022-07-23T09:22:40;20;19;
56688;PMS5003;42565;53.342;-1.534;2022-07-23T09:25:11;20;19;
56688;PMS5003;42565;53.342;-1.534;2022-07-23T09:27:49;16;16;
56688;PMS5003;42565;53.342;-1.534;2022-07-23T09:30:18;24;21;
56688;PMS5003;42565;53.342;-1.534;2022-07-23T09:33:03;19;19;
56688;PMS5003;42565;53.342;-1.534;2022-07-23T09:35:48;16;16;
56688;PMS5003;42565;53.342;-1.534;2022-07-23T09:38:18;17;16;
56688;PMS5003;42565;53.342;-1.534;2022-07-23T09:40:46;17;17;
56688;PMS5003;42565;53.342;-1.534;2022-07-23T09:43:14;15;15;
56688;PMS5003;42565;53.342;-1.534;2022-07-23T09:45:53;16;16;
56688;PMS5003;42565;53.342;-1.534;2022-07-23T09:48:44;18;18;
56688;PMS5003;42565;53.342;-1.534;2022-07-23T09:51:12;19;17;
56688;PMS5003;42565;53.342;-1.534;2022-07-23T09:53:39;16;16;
56688;PMS5003;42565;53.342;-1.534;2022-07-23T09:56:06;15;15;
56688;PMS5003;42565;53.342;-1.534;2022-07-23T09:58:34;19;18;
56688;PMS5003;42565;53.342;-1.534;2022-07-23T10:01:06;21;19;
56688;PMS5003;42565;53.342;-1.534;2022-07-23T10:03:32;20;20;
56688;PMS5003;42565;53.342;-1.534;2022-07-23T10:06:00;19;18;
56688;PMS5003;42565;53.342;-1.534;2022-07-23T10:08:27;18;16;
56688;PMS5003;42565;53.342;-1.534;2022-07-23T10:10:57;18;18;
56688;PMS5003;42565;53.342;-1.534;2022-07-23T10:13:27;21;20;
56688;PMS5003;42565;53.342;-1.534;2022-07-23T10:15:54;20;20;
56688;PMS5003;42565;53.342;-1.534;2022-07-23T10:18:22;20;19;
56688;PMS5003;42565;53.342;-1.534;2022-07-23T10:20:50;19;18;
56688;PMS5003;42565;53.342;-1.534;2022-07-23T10:23:19;20;18;
56688;PMS5003;42565;53.342;-1.534;2022-07-23T10:25:57;17;16;
56688;PMS5003;42565;53.342;-1.534;2022-07-23T10:28:45;14;14;
56688;PMS5003;42565;53.342;-1.534;2022-07-23T10:31:31;15;15;
56688;PMS5003;42565;53.342;-1.534;2022-07-23T10:34:10;18;15;
56688;PMS5003;42565;53.342;-1.534;2022-07-23T10:36:47;19;17;
56688;PMS5003;42565;53.342;-1.534;2022-07-23T10:39:19;18;17;
56688;PMS5003;42565;53.342;-1.534;2022-07-23T10:41:51;20;19;
56688;PMS5003;42565;53.342;-1.534;2022-07-23T10:44:19;16;16;
56688;PMS5003;42565;53.342;-1.534;2022-07-23T10:46:56;18;17;
56688;PMS5003;42565;53.342;-1.534;2022-07-23T10:49:24;17;16;
56688;PMS5003;42565;53.342;-1.534;2022-07-23T10:52:25;17;16;
56688;PMS5003;42565;53.342;-1.534;2022-07-23T10:54:54;15;15;
56688;PMS5003;42565;53.342;-1.534;2022-07-23T10:57:23;16;15;
56688;PMS5003;42565;53.342;-1.534;2022-07-23T11:00:23;18;17;
56688;PMS5003;42565;53.342;-1.534;2022-07-23T11:02:53;16;15;
56688;PMS5003;42565;53.342;-1.534;2022-07-23T11:05:21;14;13;
56688;PMS5003;42565;53.342;-1.534;2022-07-23T11:08:22;10;10;
56688;PMS5003;42565;53.342;-1.534;2022-07-23T11:10:50;13;12;
56688;PMS5003;42565;53.342;-1.534;2022-07-23T11:13:52;12;11;
56688;PMS5003;42565;53.342;-1.534;2022-07-23T11:16:23;12;12;
56688;PMS5003;42565;53.342;-1.534;2022-07-23T11:18:53;12;12;
56688;PMS5003;42565;53.342;-1.534;2022-07-23T11:21:41;14;12;
56688;PMS5003;42565;53.342;-1.534;2022-07-23T11:24:11;13;12;
56688;PMS5003;42565;53.342;-1.534;2022-07-23T11:26:42;11;11;
56688;PMS5003;42565;53.342;-1.534;2022-07-23T11:29:46;14;13;
56688;PMS5003;42565;53.342;-1.534;2022-07-23T11:32:18;13;12;
56688;PMS5003;42565;53.342;-1.534;2022-07-23T11:34:50;12;12;
56688;PMS5003;42565;53.342;-1.534;2022-07-23T11:37:35;13;11;
56688;PMS5003;42565;53.342;-1.534;2022-07-23T11:40:06;11;10;
56688;PMS5003;42565;53.342;-1.534;2022-07-23T11:42:36;9;9;
56688;PMS5003;42565;53.342;-1.534;2022-07-23T11:45:05;9;9;
56688;PMS5003;42565;53.342;-1.534;2022-07-23T11:47:33;9;9;
56688;PMS5003;42565;53.342;-1.534;2022-07-23T11:50:01;9;9;
56688;PMS5003;42565;53.342;-1.534;2022-07-23T11:52:31;8;8;
56688;PMS5003;42565;53.342;-1.534;2022-07-23T11:54:59;9;9;
56688;PMS5003;42565;53.342;-1.534;2022-07-23T11:57:28;8;8;
56688;PMS5003;42565;53.342;-1.534;2022-07-23T11:59:58;10;10;
56688;PMS5003;42565;53.342;-1.534;2022-07-23T12:02:32;7;7;
56688;PMS5003;42565;53.342;-1.534;2022-07-23T12:04:59;8;8;
56688;PMS5003;42565;53.342;-1.534;2022-07-23T12:07:27;10;10;
56688;PMS5003;42565;53.342;-1.534;2022-07-23T12:09:57;7;6;
56688;PMS5003;42565;53.342;-1.534;2022-07-23T12:12:26;9;8;
56688;PMS5003;42565;53.342;-1.534;2022-07-23T12:14:53;7;7;
56688;PMS5003;42565;53.342;-1.534;2022-07-23T12:17:27;7;6;
56688;PMS5003;42565;53.342;-1.534;2022-07-23T12:19:56;10;9;
56688;PMS5003;42565;53.342;-1.534;2022-07-23T12:22:24;6;6;
56688;PMS5003;42565;53.342;-1.534;2022-07-23T12:24:54;6;6;
56688;PMS5003;42565;53.342;-1.534;2022-07-23T12:27:23;6;6;
56688;PMS5003;42565;53.342;-1.534;2022-07-23T12:29:51;7;7;
56688;PMS5003;42565;53.342;-1.534;2022-07-23T12:32:19;6;6;
56688;PMS5003;42565;53.342;-1.534;2022-07-23T12:34:49;8;8;
56688;PMS5003;42565;53.342;-1.534;2022-07-23T12:37:26;6;6;
56688;PMS5003;42565;53.342;-1.534;2022-07-23T12:39:54;7;6;
56688;PMS5003;42565;53.342;-1.534;2022-07-23T12:42:22;7;7;
56688;PMS5003;42565;53.342;-1.534;2022-07-23T12:45:06;8;8;
56688;PMS5003;42565;53.342;-1.534;2022-07-23T12:47:52;7;7;
56688;PMS5003;42565;53.342;-1.534;2022-07-23T12:50:39;6;6;
56688;PMS5003;42565;53.342;-1.534;2022-07-23T12:53:10;5;5;
56688;PMS5003;42565;53.342;-1.534;2022-07-23T12:55:40;6;6;
56688;PMS5003;42565;53.342;-1.534;2022-07-23T12:58:10;7;7;
56688;PMS5003;42565;53.342;-1.534;2022-07-23T13:01:21;5;5;
56688;PMS5003;42565;53.342;-1.534;2022-07-23T13:03:55;4;4;
56688;PMS5003;42565;53.342;-1.534;2022-07-23T13:06:24;3;3;
56688;PMS5003;42565;53.342;-1.534;2022-07-23T13:08:53;4;4;
56688;PMS5003;42565;53.342;-1.534;2022-07-23T13:11:19;5;4;
56688;PMS5003;42565;53.342;-1.534;2022-07-23T13:13:47;4;4;
56688;PMS5003;42565;53.342;-1.534;2022-07-23T13:16:14;3;3;
56688;PMS5003;42565;53.342;-1.534;2022-07-23T13:18:41;5;5;
56688;PMS5003;42565;53.342;-1.534;2022-07-23T13:21:09;5;5;
56688;PMS5003;42565;53.342;-1.534;2022-07-23T13:23:36;4;3;
56688;PMS5003;42565;53.342;-1.534;2022-07-23T13:26:04;5;5;
56688;PMS5003;42565;53.342;-1.534;2022-07-23T13:28:31;4;4;
56688;PMS5003;42565;53.342;-1.534;2022-07-23T13:30:58;6;6;
56688;PMS5003;42565;53.342;-1.534;2022-07-23T13:33:26;5;5;
56688;PMS5003;42565;53.342;-1.534;2022-07-23T13:35:53;5;5;
56688;PMS5003;42565;53.342;-1.534;2022-07-23T13:38:21;5;5;
56688;PMS5003;42565;53.342;-1.534;2022-07-23T13:40:49;6;5;
56688;PMS5003;42565;53.342;-1.534;2022-07-23T13:43:18;5;5;
56688;PMS5003;42565;53.342;-1.534;2022-07-23T13:45:46;6;6;
56688;PMS5003;42565;53.342;-1.534;2022-07-23T13:48:14;5;5;
56688;PMS5003;42565;53.342;-1.534;2022-07-23T13:50:42;5;5;
56688;PMS5003;42565;53.342;-1.534;2022-07-23T13:53:10;6;6;
56688;PMS5003;42565;53.342;-1.534;2022-07-23T13:55:39;7;7;
56688;PMS5003;42565;53.342;-1.534;2022-07-23T13:58:08;6;6;
56688;PMS5003;42565;53.342;-1.534;2022-07-23T14:00:37;8;8;
56688;PMS5003;42565;53.342;-1.534;2022-07-23T14:03:07;7;7;
56688;PMS5003;42565;53.342;-1.534;2022-07-23T14:05:34;7;7;
56688;PMS5003;42565;53.342;-1.534;2022-07-23T14:08:02;8;8;
56688;PMS5003;42565;53.342;-1.534;2022-07-23T14:10:30;7;7;
56688;PMS5003;42565;53.342;-1.534;2022-07-23T14:12:58;10;10;
56688;PMS5003;42565;53.342;-1.534;2022-07-23T14:15:26;11;10;
56688;PMS5003;42565;53.342;-1.534;2022-07-23T14:17:55;10;9;
56688;PMS5003;42565;53.342;-1.534;2022-07-23T14:20:22;10;10;
56688;PMS5003;42565;53.342;-1.534;2022-07-23T14:22:51;9;9;
56688;PMS5003;42565;53.342;-1.534;2022-07-23T14:25:18;10;10;
56688;PMS5003;42565;53.342;-1.534;2022-07-23T14:28:26;9;9;
56688;PMS5003;42565;53.342;-1.534;2022-07-23T14:30:53;8;8;
56688;PMS5003;42565;53.342;-1.534;2022-07-23T14:33:19;9;9;
56688;PMS5003;42565;53.342;-1.534;2022-07-23T14:35:47;10;10;
56688;PMS5003;42565;53.342;-1.534;2022-07-23T14:38:15;10;10;
56688;PMS5003;42565;53.342;-1.534;2022-07-23T14:40:42;10;10;
56688;PMS5003;42565;53.342;-1.534;2022-07-23T14:43:10;8;7;
56688;PMS5003;42565;53.342;-1.534;2022-07-23T14:45:37;10;9;
56688;PMS5003;42565;53.342;-1.534;2022-07-23T14:48:05;9;9;
56688;PMS5003;42565;53.342;-1.534;2022-07-23T14:50:32;10;10;
56688;PMS5003;42565;53.342;-1.534;2022-07-23T14:52:59;8;8;
56688;PMS5003;42565;53.342;-1.534;2022-07-23T14:55:27;11;11;
56688;PMS5003;42565;53.342;-1.534;2022-07-23T14:57:54;12;11;
56688;PMS5003;42565;53.342;-1.534;2022-07-23T15:00:21;10;10;
56688;PMS5003;42565;53.342;-1.534;2022-07-23T15:02:47;9;9;
56688;PMS5003;42565;53.342;-1.534;2022-07-23T15:05:14;10;10;
56688;PMS5003;42565;53.342;-1.534;2022-07-23T15:07:42;9;9;
56688;PMS5003;42565;53.342;-1.534;2022-07-23T15:10:09;8;8;
56688;PMS5003;42565;53.342;-1.534;2022-07-23T15:12:37;8;8;
56688;PMS5003;42565;53.342;-1.534;2022-07-23T15:15:05;10;10;
56688;PMS5003;42565;53.342;-1.534;2022-07-23T15:17:32;9;9;
56688;PMS5003;42565;53.342;-1.534;2022-07-23T15:20:00;8;8;
56688;PMS5003;42565;53.342;-1.534;2022-07-23T15:22:27;9;9;
56688;PMS5003;42565;53.342;-1.534;2022-07-23T15:24:54;8;8;
56688;PMS5003;42565;53.342;-1.534;2022-07-23T15:27:21;9;9;
56688;PMS5003;42565;53.342;-1.534;2022-07-23T15:29:48;9;8;
56688;PMS5003;42565;53.342;-1.534;2022-07-23T15:32:15;11;10;
56688;PMS5003;42565;53.342;-1.534;2022-07-23T15:34:43;10;9;
56688;PMS5003;42565;53.342;-1.534;2022-07-23T15:37:10;11;10;
56688;PMS5003;42565;53.342;-1.534;2022-07-23T15:39:38;10;10;
56688;PMS5003;42565;53.342;-1.534;2022-07-23T15:42:06;10;10;
56688;PMS5003;42565;53.342;-1.534;2022-07-23T15:44:33;10;10;
56688;PMS5003;42565;53.342;-1.534;2022-07-23T15:47:00;9;9;
56688;PMS5003;42565;53.342;-1.534;2022-07-23T15:49:27;8;8;
56688;PMS5003;42565;53.342;-1.534;2022-07-23T15:51:55;7;7;
56688;PMS5003;42565;53.342;-1.534;2022-07-23T15:54:22;9;9;
56688;PMS5003;42565;53.342;-1.534;2022-07-23T15:56:49;7;7;
56688;PMS5003;42565;53.342;-1.534;2022-07-23T15:59:16;9;9;
56688;PMS5003;42565;53.342;-1.534;2022-07-23T16:01:43;8;8;
56688;PMS5003;42565;53.342;-1.534;2022-07-23T16:04:10;10;9;
56688;PMS5003;42565;53.342;-1.534;2022-07-23T16:06:36;8;8;
56688;PMS5003;42565;53.342;-1.534;2022-07-23T16:09:04;7;7;
56688;PMS5003;42565;53.342;-1.534;2022-07-23T16:11:32;9;9;
56688;PMS5003;42565;53.342;-1.534;2022-07-23T16:13:59;9;8;
56688;PMS5003;42565;53.342;-1.534;2022-07-23T16:16:27;9;9;
56688;PMS5003;42565;53.342;-1.534;2022-07-23T16:18:54;8;8;
56688;PMS5003;42565;53.342;-1.534;2022-07-23T16:21:22;9;9;
56688;PMS5003;42565;53.342;-1.534;2022-07-23T16:23:49;11;11;
56688;PMS5003;42565;53.342;-1.534;2022-07-23T16:26:17;8;8;
56688;PMS5003;42565;53.342;-1.534;2022-07-23T16:28:44;15;14;
56688;PMS5003;42565;53.342;-1.534;2022-07-23T16:31:11;70;69;